Terminal Aerodrome Forecast
Issued by NWS

Current Version | Previous Version | Text Only | Print | Product List | Glossary On
Versions: 1 2 3 4 5 6 7 8 9 10 11 12 13 14 15 16 17 18 19 20 21 22 23 24 25
000
FTUS43 KDVN 020900 AAB
TAFCID
TAF AMD
KCID 020914Z 0209/0306 VRB03KT 6SM BR SCT050 SCT250
     FM021100 VRB03KT 4SM BR SCT040 BKN100
      TEMPO 0211/0213 2SM BR
     FM021500 26007KT P6SM SCT140 SCT250
     FM022300 23003KT P6SM SKC=

USA.gov is the U.S. government's official web portal to all federal, state and local government web resources and services.